createdAt,value
2023-01-26T00:01:45.030Z,101230.72
2023-01-26T00:04:12.616Z,101242.91
2023-01-26T00:06:39.628Z,101234.41
2023-01-26T00:09:06.795Z,101227.63
2023-01-26T00:11:33.842Z,101219.03
2023-01-26T00:14:01.537Z,101221.81
2023-01-26T00:16:28.712Z,101220.94
2023-01-26T00:18:55.970Z,101203.75
2023-01-26T00:21:24.569Z,101181.03
2023-01-26T00:23:52.896Z,101213.94
2023-01-26T00:26:24.830Z,101213.16
2023-01-26T00:28:53.671Z,101213.94
2023-01-26T00:31:24.891Z,101203.63
2023-01-26T00:33:54.261Z,101200.31
2023-01-26T00:36:21.696Z,101198.75
2023-01-26T00:38:48.735Z,101179.63
2023-01-26T00:41:34.500Z,101196.44
2023-01-26T00:44:02.400Z,101192.25
2023-01-26T00:46:29.681Z,101183.81
2023-01-26T00:48:56.944Z,101183.81
2023-01-26T00:51:24.147Z,101189.88
2023-01-26T00:53:51.271Z,101183.81
2023-01-26T00:56:19.354Z,101200.97
2023-01-26T00:58:46.780Z,101189.03
2023-01-26T01:01:13.938Z,101190.78
2023-01-26T01:03:42.985Z,101194.28
2023-01-26T01:06:10.193Z,101194.28
2023-01-26T01:08:37.372Z,101189.31
2023-01-26T01:11:10.218Z,101194.50
2023-01-26T01:13:37.796Z,101188.56
2023-01-26T01:16:09.948Z,101184.34
2023-01-26T01:18:37.326Z,101170.53
2023-01-26T01:21:11.927Z,101167.22
2023-01-26T01:23:39.615Z,101168.06
2023-01-26T01:26:07.433Z,101172.44
2023-01-26T01:28:35.762Z,101172.28
2023-01-26T01:31:07.382Z,101161.28
2023-01-26T01:33:36.564Z,101152.56
2023-01-26T01:36:10.058Z,101163.84
2023-01-26T01:38:37.265Z,101156.88
2023-01-26T01:41:04.530Z,101151.66
2023-01-26T01:43:31.703Z,101151.66
2023-01-26T01:46:01.730Z,101155.13
2023-01-26T01:48:36.369Z,101154.13
2023-01-26T01:51:12.890Z,101153.19
2023-01-26T01:53:45.162Z,101138.72
2023-01-26T01:56:21.842Z,101141.38
2023-01-26T01:58:53.292Z,101126.97
2023-01-26T02:01:20.628Z,101134.63
2023-01-26T02:03:51.582Z,101129.53
2023-01-26T02:06:42.131Z,101124.44
2023-01-26T02:09:30.625Z,101117.59
2023-01-26T02:11:59.139Z,101105.66
2023-01-26T02:14:27.915Z,101110.75
2023-01-26T02:16:55.052Z,101101.91
2023-01-26T02:20:07.065Z,101112.50
2023-01-26T02:22:56.155Z,101109.88
2023-01-26T02:25:50.494Z,101104.78
2023-01-26T02:28:19.363Z,101103.94
2023-01-26T02:30:47.443Z,101109.16
2023-01-26T02:33:26.049Z,101107.53
2023-01-26T02:35:56.409Z,101104.19
2023-01-26T02:38:29.264Z,101099.09
2023-01-26T02:41:06.404Z,101090.53
2023-01-26T02:43:33.867Z,101092.53
2023-01-26T02:46:00.998Z,101056.22
2023-01-26T02:48:47.632Z,101084.09
2023-01-26T02:51:14.832Z,101082.59
2023-01-26T02:53:42.842Z,101077.50
2023-01-26T02:56:10.139Z,101074.66
2023-01-26T02:58:37.237Z,101082.59
2023-01-26T03:01:04.455Z,101044.53
2023-01-26T03:03:44.305Z,101077.66
2023-01-26T03:06:13.040Z,101077.66
2023-01-26T03:08:40.398Z,101068.94
2023-01-26T03:11:09.389Z,101079.25
2023-01-26T03:13:36.759Z,101067.06
2023-01-26T03:16:07.574Z,101065.44
2023-01-26T03:18:55.091Z,101064.50
2023-01-26T03:21:41.386Z,101056.72
2023-01-26T03:24:31.315Z,101051.75
2023-01-26T03:27:19.489Z,101048.44
2023-01-26T03:29:46.783Z,101048.44
2023-01-26T03:32:14.129Z,101048.28
2023-01-26T03:34:42.786Z,101045.81
2023-01-26T03:37:09.905Z,101045.81
2023-01-26T03:40:02.468Z,101046.53
2023-01-26T03:42:48.947Z,101042.44
2023-01-26T03:45:35.059Z,101048.44
2023-01-26T03:48:25.630Z,101051.75
2023-01-26T03:51:11.054Z,101042.41
2023-01-26T03:53:56.913Z,101043.34
2023-01-26T03:56:31.643Z,101039.84
2023-01-26T03:59:08.662Z,101036.44
2023-01-26T04:01:38.983Z,101038.25
2023-01-26T04:04:25.770Z,101027.97
2023-01-26T04:07:12.407Z,101030.66
2023-01-26T04:09:45.203Z,101023.56
2023-01-26T04:12:13.922Z,101024.81
2023-01-26T04:15:12.075Z,101025.69
2023-01-26T04:17:57.745Z,101023.22
2023-01-26T04:20:44.945Z,101024.81
2023-01-26T04:23:19.725Z,101023.09
2023-01-26T04:25:48.677Z,101012.91
2023-01-26T04:28:16.409Z,100986.03
2023-01-26T04:30:44.270Z,101004.44
2023-01-26T04:33:12.099Z,100987.03
2023-01-26T04:35:39.928Z,101009.66
2023-01-26T04:38:07.561Z,101008.03
2023-01-26T04:40:34.624Z,101006.31
2023-01-26T04:43:02.966Z,100994.25
2023-01-26T04:45:30.021Z,101003.06
2023-01-26T04:47:57.325Z,100997.97
2023-01-26T04:50:24.444Z,100960.06
2023-01-26T04:52:51.674Z,100986.84
2023-01-26T04:55:19.974Z,100992.94
2023-01-26T04:57:47.247Z,100993.00
2023-01-26T05:00:14.653Z,100984.28
2023-01-26T05:02:42.260Z,100994.75
2023-01-26T05:05:10.362Z,100995.53
2023-01-26T05:07:37.823Z,100976.59
2023-01-26T05:10:05.672Z,100979.34
2023-01-26T05:13:07.955Z,100949.41
2023-01-26T05:16:00.722Z,100985.22
2023-01-26T05:19:00.398Z,100987.78
2023-01-26T05:21:38.554Z,100989.53
2023-01-26T05:24:06.301Z,100984.44
2023-01-26T05:27:19.761Z,100987.00
2023-01-26T05:29:51.373Z,100987.78
2023-01-26T05:32:19.876Z,100981.91
2023-01-26T05:34:47.047Z,100978.41
2023-01-26T05:37:15.499Z,100978.28
2023-01-26T05:39:45.233Z,100983.38
2023-01-26T05:42:13.122Z,100981.72
2023-01-26T05:44:58.726Z,100977.47
2023-01-26T05:47:26.038Z,100972.38
2023-01-26T05:49:53.224Z,100970.78
2023-01-26T05:52:27.354Z,100975.03
2023-01-26T05:54:54.520Z,100979.34
2023-01-26T05:57:21.825Z,100979.34
2023-01-26T05:59:59.130Z,100973.25
2023-01-26T06:02:29.342Z,100978.28
2023-01-26T06:04:56.324Z,100977.34
2023-01-26T06:07:23.442Z,100979.09
2023-01-26T06:10:05.608Z,100979.09
2023-01-26T06:12:48.184Z,100985.03
2023-01-26T06:15:20.316Z,100967.03
2023-01-26T06:17:48.846Z,100980.03
2023-01-26T06:20:17.796Z,100974.09
2023-01-26T06:22:53.906Z,100975.00
2023-01-26T06:25:20.970Z,100980.97
2023-01-26T06:27:48.129Z,100976.72
2023-01-26T06:30:25.908Z,100967.41
2023-01-26T06:32:54.990Z,100974.25
2023-01-26T06:35:22.138Z,100969.94
2023-01-26T06:37:51.641Z,100969.16
2023-01-26T06:40:19.671Z,100976.09
2023-01-26T06:42:50.564Z,100981.31
2023-01-26T06:45:20.856Z,100976.09
2023-01-26T06:47:51.391Z,100981.31
2023-01-26T06:50:23.064Z,100979.63
2023-01-26T06:52:56.696Z,100976.22
2023-01-26T06:55:49.885Z,100975.34
2023-01-26T06:58:43.076Z,100976.72
2023-01-26T07:01:33.970Z,100981.91
2023-01-26T07:04:01.123Z,100985.47
2023-01-26T07:06:28.382Z,100978.66
2023-01-26T07:08:55.422Z,100979.59
2023-01-26T07:11:22.936Z,100986.41
2023-01-26T07:13:50.043Z,100991.50
2023-01-26T07:16:18.363Z,100995.00
2023-01-26T07:18:45.967Z,100986.66
2023-01-26T07:21:16.513Z,100996.06
2023-01-26T07:23:43.531Z,100985.13
2023-01-26T07:26:10.662Z,100978.22
2023-01-26T07:28:40.103Z,100974.97
2023-01-26T07:31:08.603Z,100968.13
2023-01-26T07:33:36.141Z,100974.97
2023-01-26T07:36:04.517Z,100975.09
2023-01-26T07:38:33.386Z,100972.53
2023-01-26T07:41:05.797Z,100976.84
2023-01-26T07:43:34.904Z,100979.50
2023-01-26T07:46:02.070Z,100985.44
2023-01-26T07:48:32.253Z,100978.44
2023-01-26T07:51:00.420Z,100978.44
2023-01-26T07:53:29.565Z,100971.63
2023-01-26T07:56:13.074Z,100978.44
2023-01-26T07:58:40.627Z,100982.81
2023-01-26T08:01:10.414Z,100978.69
2023-01-26T08:03:37.961Z,100978.81
2023-01-26T08:06:06.105Z,100971.16
2023-01-26T08:08:34.025Z,100968.75
2023-01-26T08:11:02.412Z,100965.38
2023-01-26T08:13:35.816Z,100975.69
2023-01-26T08:16:12.757Z,100972.22
2023-01-26T08:18:42.241Z,100974.06
2023-01-26T08:21:10.627Z,100975.13
2023-01-26T08:23:37.753Z,100982.19
2023-01-26T08:26:12.021Z,100972.91
2023-01-26T08:28:39.676Z,100969.53
2023-01-26T08:31:11.662Z,100966.22
2023-01-26T08:33:40.709Z,100962.03
2023-01-26T08:36:11.241Z,100964.59
2023-01-26T08:38:38.830Z,100971.19
2023-01-26T08:41:06.526Z,100966.84
2023-01-26T08:43:33.969Z,100964.22
2023-01-26T08:46:01.596Z,100955.63
2023-01-26T08:48:29.681Z,100969.44
2023-01-26T08:50:59.182Z,100960.88
2023-01-26T08:53:27.002Z,100974.66
2023-01-26T08:55:54.170Z,100968.03
2023-01-26T08:58:21.324Z,100974.91
2023-01-26T09:00:48.479Z,100976.63
2023-01-26T09:03:15.629Z,100978.38
2023-01-26T09:05:42.822Z,100973.28
2023-01-26T09:08:10.941Z,100974.91
2023-01-26T09:10:39.164Z,100978.38
2023-01-26T09:13:06.746Z,100990.44
2023-01-26T09:15:33.897Z,100982.78
2023-01-26T09:18:01.294Z,100991.94
2023-01-26T09:20:28.998Z,100981.94
2023-01-26T09:22:56.164Z,100981.19
2023-01-26T09:25:23.262Z,100973.41
2023-01-26T09:27:50.444Z,100966.66
2023-01-26T09:30:17.805Z,100975.13
2023-01-26T09:32:46.124Z,100965.69
2023-01-26T09:35:14.976Z,100959.72
2023-01-26T09:37:45.543Z,100959.81
2023-01-26T09:40:18.078Z,100962.25
2023-01-26T09:43:26.002Z,100950.91
2023-01-26T09:46:08.363Z,100963.09
2023-01-26T09:48:47.521Z,100961.34
2023-01-26T09:51:23.432Z,100961.34
2023-01-26T09:53:59.085Z,100961.34
2023-01-26T09:56:30.494Z,100944.84
2023-01-26T09:59:05.288Z,100947.66
2023-01-26T10:01:42.469Z,100940.72
2023-01-26T10:04:36.739Z,100945.81
2023-01-26T10:07:10.071Z,100945.91
2023-01-26T10:09:50.056Z,100934.13
2023-01-26T10:12:20.315Z,100934.44
2023-01-26T10:14:51.526Z,100930.09
2023-01-26T10:17:41.308Z,100930.84
2023-01-26T10:20:37.138Z,100930.84
2023-01-26T10:23:12.599Z,100925.84
2023-01-26T10:25:41.519Z,100924.22
2023-01-26T10:28:15.838Z,100917.41
2023-01-26T10:30:45.746Z,100931.09
2023-01-26T10:33:16.514Z,100927.59
2023-01-26T10:35:43.922Z,100917.41
2023-01-26T10:38:39.457Z,100919.22
2023-01-26T10:41:06.554Z,100919.22
2023-01-26T10:43:41.485Z,100912.50
2023-01-26T10:46:31.596Z,100906.56
2023-01-26T10:49:22.231Z,100890.13
2023-01-26T10:52:18.449Z,100912.50
2023-01-26T10:54:46.747Z,100895.47
2023-01-26T10:57:24.287Z,100896.47
2023-01-26T10:59:54.124Z,100885.03
2023-01-26T11:02:29.653Z,100888.72
2023-01-26T11:05:15.689Z,100899.13
2023-01-26T11:07:45.108Z,100892.28
2023-01-26T11:10:18.076Z,100895.69
2023-01-26T11:12:45.675Z,100886.19
2023-01-26T11:15:24.173Z,100893.19
2023-01-26T11:18:29.857Z,100897.53
2023-01-26T11:21:19.269Z,100896.72
2023-01-26T11:23:55.404Z,100892.44
2023-01-26T11:27:05.314Z,100884.66
2023-01-26T11:29:52.191Z,100875.28
2023-01-26T11:33:07.238Z,100873.44
2023-01-26T11:35:50.743Z,100874.25
2023-01-26T11:38:43.648Z,100872.63
2023-01-26T11:41:29.334Z,100871.81
2023-01-26T11:44:21.354Z,100867.63
2023-01-26T11:47:06.755Z,100866.81
2023-01-26T11:49:59.815Z,100867.63
2023-01-26T11:52:45.386Z,100866.72
2023-01-26T11:55:31.930Z,100858.94
2023-01-26T11:58:33.989Z,100845.91
2023-01-26T12:01:07.172Z,100859.66
2023-01-26T12:03:42.086Z,100850.38
2023-01-26T12:06:18.524Z,100856.28
2023-01-26T12:08:53.923Z,100852.13
2023-01-26T12:11:34.602Z,100837.50
2023-01-26T12:14:13.440Z,100841.09
2023-01-26T12:16:43.417Z,100834.28
2023-01-26T12:19:13.282Z,100844.47
2023-01-26T12:21:45.600Z,100826.38
2023-01-26T12:24:54.322Z,100835.06
2023-01-26T12:27:19.387Z,100823.13
2023-01-26T12:30:01.825Z,100827.41
2023-01-26T12:32:29.040Z,100826.63
2023-01-26T12:34:56.211Z,100816.25
2023-01-26T12:37:47.799Z,100820.69
2023-01-26T12:40:36.211Z,100814.75
2023-01-26T12:43:32.732Z,100815.50
2023-01-26T12:46:03.338Z,100819.72
2023-01-26T12:48:53.572Z,100818.88
2023-01-26T12:51:27.514Z,100822.31
2023-01-26T12:54:17.057Z,100817.31
2023-01-26T12:56:55.267Z,100819.06
2023-01-26T12:59:46.985Z,100810.50
2023-01-26T13:02:15.920Z,100813.22
2023-01-26T13:04:47.243Z,100815.91
2023-01-26T13:07:34.401Z,100814.16
2023-01-26T13:10:19.553Z,100807.34
2023-01-26T13:12:57.875Z,100801.31
2023-01-26T13:15:31.810Z,100805.59
2023-01-26T13:18:04.474Z,100808.97
2023-01-26T13:20:40.520Z,100799.69
2023-01-26T13:23:43.553Z,100809.91
2023-01-26T13:26:24.766Z,100798.66
2023-01-26T13:28:52.691Z,100798.03
2023-01-26T13:31:32.246Z,100805.81
2023-01-26T13:34:02.361Z,100813.47
2023-01-26T13:36:34.993Z,100810.97
2023-01-26T13:39:12.650Z,100817.75
2023-01-26T13:41:47.756Z,100816.03
2023-01-26T13:44:20.829Z,100816.78
2023-01-26T13:46:57.493Z,100808.97
2023-01-26T13:49:44.136Z,100814.94
2023-01-26T13:52:19.133Z,100813.34
2023-01-26T13:54:47.471Z,100813.22
2023-01-26T13:57:26.080Z,100814.06
2023-01-26T13:59:59.453Z,100812.34
2023-01-26T14:02:32.697Z,100806.25
2023-01-26T14:05:02.372Z,100804.56
2023-01-26T14:07:40.301Z,100793.47
2023-01-26T14:10:08.095Z,100791.81
2023-01-26T14:12:47.366Z,100795.19
2023-01-26T14:15:33.618Z,100791.72
2023-01-26T14:18:09.230Z,100798.56
2023-01-26T14:20:39.685Z,100802.84
2023-01-26T14:23:15.490Z,100798.56
2023-01-26T14:25:47.339Z,100805.28
2023-01-26T14:28:22.707Z,100806.91
2023-01-26T14:30:58.440Z,100811.16
2023-01-26T14:33:25.706Z,100810.28
2023-01-26T14:36:01.939Z,100809.44
2023-01-26T14:38:33.074Z,100803.44
2023-01-26T14:41:01.800Z,100811.91
2023-01-26T14:43:28.909Z,100811.03
2023-01-26T14:46:05.475Z,100810.19
2023-01-26T14:48:38.765Z,100804.97
2023-01-26T14:51:12.891Z,100811.81
2023-01-26T14:53:40.060Z,100803.22
2023-01-26T14:56:19.026Z,100803.00
2023-01-26T14:58:52.035Z,100814.94
2023-01-26T15:01:26.950Z,100818.53
2023-01-26T15:04:04.999Z,100811.59
2023-01-26T15:07:46.976Z,100816.69
2023-01-26T15:11:47.419Z,100812.28
2023-01-26T15:14:46.554Z,100821.56
2023-01-26T15:18:04.053Z,100812.19
2023-01-26T15:28:43.979Z,100809.31
2023-01-26T15:31:21.550Z,100797.03
2023-01-26T15:33:50.100Z,100797.38
2023-01-26T15:36:32.775Z,100809.31
2023-01-26T15:39:15.650Z,100810.00
2023-01-26T15:41:45.323Z,100805.63
2023-01-26T15:44:17.865Z,100809.06
2023-01-26T15:46:45.960Z,100810.81
2023-01-26T15:49:15.848Z,100770.88
2023-01-26T15:51:42.913Z,100810.72
2023-01-26T15:54:11.601Z,100810.72
2023-01-26T15:56:38.770Z,100815.81
2023-01-26T15:59:06.059Z,100811.59
2023-01-26T16:01:33.266Z,100805.47
2023-01-26T16:04:00.366Z,100820.19
2023-01-26T16:06:30.542Z,100816.78
2023-01-26T16:08:58.025Z,100816.78
2023-01-26T16:11:37.397Z,100820.19
2023-01-26T16:14:04.657Z,100806.41
2023-01-26T16:16:33.015Z,100814.28
2023-01-26T16:19:00.324Z,100817.75
2023-01-26T16:21:35.197Z,100811.03
2023-01-26T16:24:03.715Z,100813.69
2023-01-26T16:26:31.642Z,100817.97
2023-01-26T16:28:59.037Z,100817.97
2023-01-26T16:31:31.331Z,100817.97
2023-01-26T16:34:00.284Z,100819.66
2023-01-26T16:36:27.722Z,100813.69
2023-01-26T16:38:55.096Z,100808.50
2023-01-26T16:41:26.513Z,100817.09
2023-01-26T16:43:59.183Z,100814.53
2023-01-26T16:46:27.844Z,100801.59
2023-01-26T16:48:55.309Z,100800.91
2023-01-26T16:51:26.678Z,100817.97
2023-01-26T16:53:54.815Z,100812.88
2023-01-26T16:56:22.734Z,100815.38
2023-01-26T16:58:49.855Z,100807.44
2023-01-26T17:01:20.267Z,100819.50
2023-01-26T17:03:48.333Z,100822.84
2023-01-26T17:06:17.073Z,100800.53
2023-01-26T17:08:44.957Z,100812.53
2023-01-26T17:11:27.806Z,100816.03
2023-01-26T17:13:56.802Z,100820.31
2023-01-26T17:16:29.634Z,100820.38
2023-01-26T17:18:57.049Z,100825.47
2023-01-26T17:21:24.220Z,100817.66
2023-01-26T17:23:52.965Z,100824.47
2023-01-26T17:26:21.851Z,100818.28
2023-01-26T17:28:50.869Z,100820.78
2023-01-26T17:31:20.352Z,100824.97
2023-01-26T17:33:49.931Z,100824.91
2023-01-26T17:36:18.520Z,100825.66
2023-01-26T17:38:45.753Z,100825.66
2023-01-26T17:41:12.906Z,100825.53
2023-01-26T17:43:40.023Z,100825.53
2023-01-26T17:46:18.317Z,100820.44
2023-01-26T17:48:46.691Z,100817.06
2023-01-26T17:51:21.270Z,100827.28
2023-01-26T17:53:50.605Z,100827.16
2023-01-26T17:56:20.206Z,100834.13
2023-01-26T17:58:49.631Z,100840.94
2023-01-26T18:01:17.037Z,100834.13
2023-01-26T18:03:44.376Z,100835.00
2023-01-26T18:06:11.815Z,100840.94
2023-01-26T18:08:40.152Z,100845.09
2023-01-26T18:11:10.278Z,100851.03
2023-01-26T18:13:37.224Z,100855.94
2023-01-26T18:16:09.575Z,100848.19
2023-01-26T18:18:36.863Z,100857.75
2023-01-26T18:21:15.655Z,100854.41
2023-01-26T18:24:04.098Z,100856.00
2023-01-26T18:26:34.352Z,100850.91
2023-01-26T18:29:01.605Z,100862.94
2023-01-26T18:31:31.787Z,100861.22
2023-01-26T18:34:00.124Z,100863.88
2023-01-26T18:36:28.249Z,100861.34
2023-01-26T18:39:02.101Z,100866.44
2023-01-26T18:41:33.313Z,100874.16
2023-01-26T18:44:01.109Z,100869.91
2023-01-26T18:46:28.789Z,100871.53
2023-01-26T18:49:00.973Z,100866.31
2023-01-26T18:51:29.897Z,100862.94
2023-01-26T18:53:57.539Z,100875.94
2023-01-26T18:56:24.617Z,100878.50
2023-01-26T18:58:53.953Z,100870.78
2023-01-26T19:01:21.419Z,100875.13
2023-01-26T19:03:55.283Z,100872.56
2023-01-26T19:06:24.408Z,100875.13
2023-01-26T19:09:02.442Z,100871.75
2023-01-26T19:11:32.546Z,100872.69
2023-01-26T19:14:01.367Z,100870.13
2023-01-26T19:16:30.102Z,100870.13
2023-01-26T19:18:57.710Z,100856.47
2023-01-26T19:21:27.715Z,100854.63
2023-01-26T19:23:56.869Z,100847.53
2023-01-26T19:26:28.021Z,100862.94
2023-01-26T19:28:55.519Z,100847.66
2023-01-26T19:31:23.403Z,100847.66
2023-01-26T19:33:55.663Z,100839.22
2023-01-26T19:36:23.855Z,100842.69
2023-01-26T19:38:51.567Z,100832.63
2023-01-26T19:41:19.684Z,100841.06
2023-01-26T19:43:47.195Z,100835.97
2023-01-26T19:46:15.440Z,100839.31
2023-01-26T19:48:43.258Z,100836.72
2023-01-26T19:51:17.214Z,100837.59
2023-01-26T19:53:46.737Z,100835.84
2023-01-26T19:56:17.119Z,100837.72
2023-01-26T19:58:49.643Z,100841.16
2023-01-26T20:01:17.081Z,100826.66
2023-01-26T20:03:44.356Z,100817.22
2023-01-26T20:06:15.941Z,100832.63
2023-01-26T20:08:43.684Z,100839.44
2023-01-26T20:11:11.005Z,100841.06
2023-01-26T20:13:38.811Z,100836.03
2023-01-26T20:16:10.252Z,100841.16
2023-01-26T20:18:38.317Z,100848.13
2023-01-26T20:21:07.374Z,100849.75
2023-01-26T20:23:36.950Z,100848.13
2023-01-26T20:26:09.568Z,100853.97
2023-01-26T20:28:37.986Z,100845.41
2023-01-26T20:31:11.154Z,100849.75
2023-01-26T20:33:39.476Z,100844.53
2023-01-26T20:36:09.434Z,100846.25
2023-01-26T20:38:36.966Z,100852.19
2023-01-26T20:41:11.796Z,100840.94
2023-01-26T20:43:41.476Z,100834.00
2023-01-26T20:46:11.723Z,100844.44
2023-01-26T20:48:39.292Z,100849.53
2023-01-26T20:51:12.591Z,100852.91
2023-01-26T20:53:40.505Z,100848.66
2023-01-26T20:56:09.375Z,100856.25
2023-01-26T20:58:36.854Z,100847.53
2023-01-26T21:01:09.018Z,100852.00
2023-01-26T21:03:37.135Z,100842.44
2023-01-26T21:06:05.983Z,100855.31
2023-01-26T21:08:33.432Z,100854.50
2023-01-26T21:11:02.675Z,100856.00
2023-01-26T21:13:29.858Z,100860.38
2023-01-26T21:15:56.989Z,100843.16
2023-01-26T21:18:24.124Z,100856.13
2023-01-26T21:21:04.029Z,100840.72
2023-01-26T21:23:32.628Z,100842.34
2023-01-26T21:26:00.501Z,100839.00
2023-01-26T21:28:28.639Z,100840.63
2023-01-26T21:31:03.979Z,100828.66
2023-01-26T21:33:33.208Z,100840.63
2023-01-26T21:36:02.656Z,100838.84
2023-01-26T21:38:38.537Z,100832.03
2023-01-26T21:41:29.782Z,100829.41
2023-01-26T21:44:01.849Z,100833.75
2023-01-26T21:46:30.097Z,100834.59
2023-01-26T21:48:57.102Z,100844.09
2023-01-26T21:51:44.012Z,100852.41
2023-01-26T21:54:11.864Z,100847.31
2023-01-26T21:56:39.522Z,100853.16
2023-01-26T21:59:10.334Z,100845.34
2023-01-26T22:01:40.400Z,100847.00
2023-01-26T22:04:10.152Z,100840.13
2023-01-26T22:06:38.073Z,100841.91
2023-01-26T22:09:06.728Z,100836.44
2023-01-26T22:11:33.976Z,100852.09
2023-01-26T22:14:01.664Z,100851.19
2023-01-26T22:16:29.140Z,100844.19
2023-01-26T22:18:56.304Z,100845.13
2023-01-26T22:21:24.293Z,100841.63
2023-01-26T22:23:51.362Z,100830.28
2023-01-26T22:26:20.451Z,100839.78
2023-01-26T22:28:56.429Z,100827.75
2023-01-26T22:31:27.249Z,100839.69
2023-01-26T22:33:55.647Z,100832.72
2023-01-26T22:36:24.046Z,100829.22
2023-01-26T22:38:52.372Z,100831.00
2023-01-26T22:41:22.185Z,100830.88
2023-01-26T22:43:51.444Z,100831.66
2023-01-26T22:46:20.675Z,100820.31
2023-01-26T22:48:47.857Z,100840.69
2023-01-26T22:51:19.185Z,100832.94
2023-01-26T22:53:46.626Z,100837.09
2023-01-26T22:56:13.746Z,100835.25
2023-01-26T22:58:56.681Z,100830.16
2023-01-26T23:01:26.582Z,100845.56
2023-01-26T23:03:55.337Z,100830.28
2023-01-26T23:06:22.952Z,100831.97
2023-01-26T23:08:50.165Z,100842.19
2023-01-26T23:11:20.911Z,100839.59
2023-01-26T23:13:49.518Z,100836.97
2023-01-26T23:16:17.023Z,100839.63
2023-01-26T23:18:44.474Z,100835.47
2023-01-26T23:21:12.166Z,100813.28
2023-01-26T23:23:41.137Z,100825.41
2023-01-26T23:26:09.076Z,100830.63
2023-01-26T23:28:41.558Z,100827.41
2023-01-26T23:31:11.008Z,100829.13
2023-01-26T23:33:39.033Z,100827.50
2023-01-26T23:36:07.280Z,100832.72
2023-01-26T23:38:34.812Z,100817.22
2023-01-26T23:41:02.364Z,100819.03
2023-01-26T23:43:29.471Z,100821.78
2023-01-26T23:45:57.008Z,100831.22
2023-01-26T23:48:25.132Z,100815.06
2023-01-26T23:50:57.078Z,100814.22
2023-01-26T23:53:24.546Z,100807.13
2023-01-26T23:55:51.909Z,100814.22
2023-01-26T23:58:19.759Z,100817.66
